createdAt,value
2019-06-01T00:03:40.190Z,12.70
2019-06-01T00:07:40.794Z,12.60
2019-06-01T00:11:45.556Z,12.60
2019-06-01T00:15:44.248Z,12.60
2019-06-01T00:19:48.242Z,12.50
2019-06-01T00:23:48.663Z,12.40
2019-06-01T00:27:51.457Z,12.40
2019-06-01T00:31:59.549Z,12.30
2019-06-01T00:35:57.488Z,12.20
2019-06-01T00:39:56.032Z,12.20
2019-06-01T00:43:57.607Z,12.20
2019-06-01T00:47:56.232Z,12.20
2019-06-01T00:51:59.317Z,12.20
2019-06-01T00:56:04.847Z,12.20
2019-06-01T01:00:07.792Z,12.10
2019-06-01T01:04:09.480Z,12.10
2019-06-01T01:08:08.090Z,12.10
2019-06-01T01:12:06.628Z,12.00
2019-06-01T01:16:08.607Z,11.90
2019-06-01T01:20:16.283Z,11.90
2019-06-01T01:24:14.747Z,11.70
2019-06-01T01:28:14.892Z,11.60
2019-06-01T01:32:15.056Z,11.60
2019-06-01T01:36:22.617Z,11.60
2019-06-01T01:40:21.096Z,11.60
2019-06-01T01:44:19.928Z,11.60
2019-06-01T01:48:18.398Z,11.70
2019-06-01T01:52:27.283Z,11.70
2019-06-01T01:56:25.788Z,11.70
2019-06-01T02:00:42.464Z,11.80
2019-06-01T02:04:40.997Z,11.80
2019-06-01T02:08:41.016Z,11.80
2019-06-01T02:12:49.548Z,11.70
2019-06-01T02:16:49.229Z,11.70
2019-06-01T02:20:47.702Z,11.70
2019-06-01T02:24:46.168Z,11.60
2019-06-01T02:28:55.203Z,11.50
2019-06-01T02:32:56.258Z,11.40
2019-06-01T02:36:58.381Z,11.40
2019-06-01T02:40:58.421Z,11.30
2019-06-01T02:44:57.422Z,11.20
2019-06-01T02:49:07.812Z,11.20
2019-06-01T02:53:08.128Z,11.10
2019-06-01T02:57:07.842Z,11.00
2019-06-01T03:01:12.060Z,10.90
2019-06-01T03:05:11.868Z,10.80
2019-06-01T03:09:27.313Z,10.80
2019-06-01T03:13:19.595Z,10.80
2019-06-01T03:17:22.621Z,10.80
2019-06-01T03:21:28.014Z,10.70
2019-06-01T03:25:28.898Z,10.70
2019-06-01T03:29:30.456Z,10.70
2019-06-01T03:33:29.072Z,10.70
2019-06-01T03:37:30.428Z,10.70
2019-06-01T03:41:35.994Z,10.80
2019-06-01T03:45:34.539Z,10.90
2019-06-01T03:54:24.989Z,11.00
2019-06-01T03:58:23.916Z,11.00
2019-06-01T04:02:32.659Z,11.10
2019-06-01T04:06:39.589Z,11.20
2019-06-01T04:10:33.019Z,11.40
2019-06-01T04:14:31.500Z,11.60
2019-06-01T04:18:29.970Z,11.70
2019-06-01T04:22:37.591Z,11.80
2019-06-01T04:26:38.279Z,11.80
2019-06-01T04:30:42.556Z,11.90
2019-06-01T04:34:41.073Z,11.90
2019-06-01T04:38:39.546Z,12.00
2019-06-01T04:42:38.004Z,12.10
2019-06-01T04:46:41.266Z,12.30
2019-06-01T04:50:39.766Z,12.50
2019-06-01T04:54:38.299Z,12.70
2019-06-01T04:58:45.061Z,12.90
2019-06-01T05:02:41.135Z,13.10
2019-06-01T05:06:47.345Z,13.30
2019-06-01T05:10:47.812Z,13.40
2019-06-01T05:14:46.278Z,13.60
2019-06-01T05:18:44.750Z,13.60
2019-06-01T05:22:49.508Z,13.70
2019-06-01T05:26:49.543Z,13.80
2019-06-01T05:30:51.251Z,13.90
2019-06-01T05:34:49.787Z,14.10
2019-06-01T05:39:06.720Z,14.30
2019-06-01T05:43:05.265Z,14.70
2019-06-01T05:47:07.416Z,15.30
2019-06-01T05:51:20.796Z,15.70
2019-06-01T05:55:19.269Z,16.10
2019-06-01T05:59:24.050Z,16.40
2019-06-01T06:03:39.307Z,16.60
2019-06-01T06:07:23.136Z,16.70
2019-06-01T06:11:26.148Z,16.90
2019-06-01T06:15:24.617Z,17.10
2019-06-01T06:19:27.361Z,17.20
2019-06-01T06:23:48.621Z,17.30
2019-06-01T06:27:47.168Z,17.60
2019-06-01T06:31:48.131Z,17.60
2019-06-01T06:35:49.613Z,17.90
2019-06-01T06:39:49.727Z,18.00
2019-06-01T06:43:54.169Z,18.20
2019-06-01T06:47:58.212Z,18.30
2019-06-01T06:52:07.661Z,18.40
2019-06-01T06:56:19.913Z,18.60
2019-06-01T07:00:20.482Z,18.70
2019-06-01T07:04:19.334Z,18.90
2019-06-01T07:08:23.805Z,19.00
2019-06-01T07:12:23.274Z,19.10
2019-06-01T07:16:35.347Z,19.30
2019-06-01T07:20:41.856Z,19.50
2019-06-01T07:24:39.784Z,19.80
2019-06-01T07:28:46.216Z,19.90
2019-06-01T07:32:50.017Z,20.00
2019-06-01T07:36:48.540Z,20.30
2019-06-01T07:40:54.274Z,20.50
2019-06-01T07:44:57.680Z,20.60
2019-06-01T07:48:58.307Z,20.50
2019-06-01T07:53:03.139Z,20.40
2019-06-01T07:57:08.114Z,20.50
2019-06-01T08:01:11.928Z,20.60
2019-06-01T08:05:19.426Z,20.70
2019-06-01T08:09:22.647Z,20.80
2019-06-01T08:13:30.395Z,20.90
2019-06-01T08:17:28.053Z,20.90
2019-06-01T08:21:28.028Z,21.00
2019-06-01T08:25:28.993Z,21.00
2019-06-01T08:29:28.839Z,21.10
2019-06-01T08:33:30.180Z,21.20
2019-06-01T08:37:29.381Z,21.30
2019-06-01T08:41:31.721Z,21.50
2019-06-01T08:45:34.242Z,21.70
2019-06-01T08:49:32.355Z,22.00
2019-06-01T08:53:41.961Z,22.20
2019-06-01T08:57:43.608Z,22.40
2019-06-01T09:01:42.136Z,22.50
2019-06-01T09:05:40.631Z,22.40
2019-06-01T09:09:39.103Z,22.60
2019-06-01T09:13:37.571Z,22.70
2019-06-01T09:17:38.349Z,22.90
2019-06-01T09:21:37.131Z,22.80
2019-06-01T09:25:39.470Z,23.00
2019-06-01T09:29:37.940Z,23.10
2019-06-01T09:33:39.411Z,23.20
2019-06-01T09:37:45.867Z,23.20
2019-06-01T09:41:49.561Z,23.10
2019-06-01T09:45:52.780Z,22.90
2019-06-01T09:54:02.584Z,22.90
2019-06-01T09:58:02.716Z,22.90
2019-06-01T10:02:01.312Z,23.00
2019-06-01T10:06:02.131Z,23.10
2019-06-01T10:10:02.346Z,23.10
2019-06-01T10:14:00.891Z,23.10
2019-06-01T10:17:59.413Z,23.20
2019-06-01T10:21:59.440Z,23.20
2019-06-01T10:26:00.758Z,23.20
2019-06-01T10:30:01.964Z,23.20
2019-06-01T10:34:04.040Z,23.30
2019-06-01T10:38:11.964Z,23.40
2019-06-01T10:42:16.696Z,23.50
2019-06-01T10:46:20.098Z,23.80
2019-06-01T10:50:19.373Z,23.80
2019-06-01T10:54:19.825Z,23.90
2019-06-01T10:58:22.327Z,23.90
2019-06-01T11:02:25.877Z,24.00
2019-06-01T11:06:40.204Z,24.00
2019-06-01T11:10:28.867Z,24.10
2019-06-01T11:14:27.429Z,24.20
2019-06-01T11:18:26.253Z,24.40
2019-06-01T11:22:26.615Z,24.40
2019-06-01T11:26:25.152Z,24.40
2019-06-01T11:30:30.120Z,24.50
2019-06-01T11:34:28.612Z,24.50
2019-06-01T11:38:29.608Z,24.70
2019-06-01T11:42:35.017Z,24.70
2019-06-01T11:46:34.718Z,24.80
2019-06-01T11:50:37.033Z,24.90
2019-06-01T11:54:41.566Z,25.10
2019-06-01T11:58:46.879Z,25.10
2019-06-01T12:02:47.734Z,25.40
2019-06-01T12:06:50.954Z,25.40
2019-06-01T12:10:48.572Z,25.30
2019-06-01T12:14:49.767Z,25.40
2019-06-01T12:18:50.893Z,25.40
2019-06-01T12:22:54.518Z,25.20
2019-06-01T12:26:54.590Z,25.30
2019-06-01T12:30:57.238Z,25.60
2019-06-01T12:35:05.609Z,25.90
2019-06-01T12:39:12.538Z,26.10
2019-06-01T12:43:19.119Z,26.00
2019-06-01T12:47:29.727Z,25.80
2019-06-01T12:51:44.398Z,26.00
2019-06-01T12:55:38.822Z,26.30
2019-06-01T12:59:37.418Z,26.60
2019-06-01T13:03:39.252Z,26.70
2019-06-01T13:07:50.872Z,26.70
2019-06-01T13:11:45.203Z,26.50
2019-06-01T13:15:45.188Z,26.60
2019-06-01T13:19:47.260Z,26.70
2019-06-01T13:23:47.499Z,26.90
2019-06-01T13:27:50.484Z,27.10
2019-06-01T13:31:53.645Z,27.50
2019-06-01T13:35:53.913Z,27.40
2019-06-01T13:39:58.270Z,27.40
2019-06-01T13:43:56.415Z,28.10
2019-06-01T13:48:01.711Z,28.40
2019-06-01T13:52:04.203Z,29.70
2019-06-01T13:56:02.750Z,31.90
2019-06-01T14:00:07.081Z,33.80
2019-06-01T14:04:06.955Z,35.60
2019-06-01T14:08:27.593Z,36.80
2019-06-01T14:12:14.405Z,37.40
2019-06-01T14:16:16.774Z,37.90
2019-06-01T14:20:17.146Z,38.30
2019-06-01T14:24:17.317Z,38.50
2019-06-01T14:28:24.893Z,38.40
2019-06-01T14:32:23.460Z,39.00
2019-06-01T14:36:22.129Z,39.70
2019-06-01T14:44:49.220Z,40.40
2019-06-01T14:48:49.272Z,40.00
2019-06-01T14:52:49.599Z,39.90
2019-06-01T14:56:53.795Z,39.50
2019-06-01T15:01:05.885Z,39.70
2019-06-01T15:05:08.985Z,40.60
2019-06-01T15:09:18.854Z,41.20
2019-06-01T15:13:14.534Z,40.40
2019-06-01T15:17:13.082Z,40.90
2019-06-01T15:21:12.543Z,41.80
2019-06-01T15:25:11.578Z,41.80
2019-06-01T15:29:10.407Z,42.20
2019-06-01T15:37:51.208Z,42.70
2019-06-01T15:41:59.114Z,42.50
2019-06-01T15:46:02.064Z,41.90
2019-06-01T15:50:16.531Z,41.30
2019-06-01T15:54:17.713Z,41.60
2019-06-01T15:58:20.442Z,41.40
2019-06-01T16:02:18.942Z,41.70
2019-06-01T16:06:21.318Z,41.90
2019-06-01T16:10:19.931Z,41.50
2019-06-01T16:14:21.521Z,41.90
2019-06-01T16:18:31.277Z,41.70
2019-06-01T16:22:31.542Z,41.60
2019-06-01T16:26:32.396Z,40.50
2019-06-01T16:30:37.424Z,40.60
2019-06-01T16:34:42.213Z,41.20
2019-06-01T16:39:14.006Z,41.20
2019-06-01T16:42:59.573Z,41.00
2019-06-01T16:46:58.119Z,40.40
2019-06-01T16:50:59.547Z,40.00
2019-06-01T16:55:21.531Z,40.10
2019-06-01T16:59:26.326Z,40.10
2019-06-01T17:03:40.211Z,39.60
2019-06-01T17:07:43.962Z,39.10
2019-06-01T17:11:54.917Z,39.30
2019-06-01T17:16:08.643Z,38.00
2019-06-01T17:20:39.434Z,37.70
2019-06-01T17:24:37.897Z,36.00
2019-06-01T17:28:36.431Z,32.10
2019-06-01T17:32:36.509Z,29.80
2019-06-01T17:36:35.063Z,28.30
2019-06-01T17:40:38.441Z,27.20
2019-06-01T17:44:52.818Z,26.60
2019-06-01T17:48:51.633Z,26.10
2019-06-01T17:52:54.617Z,25.80
2019-06-01T17:56:53.495Z,25.50
2019-06-01T18:01:09.929Z,25.30
2019-06-01T18:05:08.148Z,25.10
2019-06-01T18:09:10.333Z,24.90
2019-06-01T18:13:41.954Z,24.70
2019-06-01T18:17:33.014Z,24.50
2019-06-01T18:21:34.587Z,24.20
2019-06-01T18:25:34.341Z,23.90
2019-06-01T18:29:48.328Z,23.70
2019-06-01T18:33:44.594Z,23.60
2019-06-01T18:37:42.624Z,23.30
2019-06-01T18:41:43.055Z,23.10
2019-06-01T18:45:48.878Z,22.90
2019-06-01T18:49:49.111Z,22.70
2019-06-01T18:58:08.761Z,22.30
2019-06-01T19:02:12.574Z,22.10
2019-06-01T19:06:11.564Z,22.10
2019-06-01T19:10:15.736Z,22.10
2019-06-01T19:14:14.375Z,22.20
2019-06-01T19:18:16.976Z,22.00
2019-06-01T19:22:16.785Z,21.80
2019-06-01T19:26:16.534Z,21.60
2019-06-01T19:30:22.532Z,21.40
2019-06-01T19:34:21.325Z,21.30
2019-06-01T19:38:20.963Z,21.00
2019-06-01T19:42:20.424Z,20.90
2019-06-01T19:46:18.971Z,20.70
2019-06-01T19:50:21.190Z,20.70
2019-06-01T19:54:22.143Z,20.50
2019-06-01T19:58:28.773Z,20.50
2019-06-01T20:02:37.443Z,20.40
2019-06-01T20:06:35.391Z,20.30
2019-06-01T20:10:39.222Z,20.10
2019-06-01T20:14:38.825Z,19.90
2019-06-01T20:18:37.306Z,19.70
2019-06-01T20:22:35.842Z,19.50
2019-06-01T20:26:44.578Z,19.30
2019-06-01T20:30:38.214Z,19.10
2019-06-01T20:34:41.125Z,19.00
2019-06-01T20:38:39.608Z,18.90
2019-06-01T20:42:57.591Z,18.90
2019-06-01T20:46:53.471Z,18.90
2019-06-01T20:51:02.801Z,18.80
2019-06-01T20:55:00.972Z,18.70
2019-06-01T20:59:11.014Z,18.60
2019-06-01T21:03:13.730Z,18.50
2019-06-01T21:07:22.520Z,18.40
2019-06-01T21:11:22.246Z,18.30
2019-06-01T21:15:21.396Z,18.20
2019-06-01T21:19:20.423Z,18.00
2019-06-01T21:23:19.006Z,17.90
2019-06-01T21:27:18.454Z,17.90
2019-06-01T21:35:34.811Z,18.10
2019-06-01T21:39:36.460Z,17.90
2019-06-01T21:43:35.588Z,17.80
2019-06-01T21:47:53.776Z,17.70
2019-06-01T21:51:58.120Z,17.60
2019-06-01T21:55:59.157Z,17.70
2019-06-01T22:00:02.084Z,17.70
2019-06-01T22:04:01.655Z,17.70
2019-06-01T22:08:02.617Z,17.60
2019-06-01T22:12:01.278Z,17.50
2019-06-01T22:16:03.078Z,17.50
2019-06-01T22:20:01.636Z,17.30
2019-06-01T22:24:04.676Z,17.20
2019-06-01T22:28:03.220Z,17.20
2019-06-01T22:32:04.841Z,17.20
2019-06-01T22:36:03.344Z,17.20
2019-06-01T22:40:01.796Z,17.10
2019-06-01T22:44:00.339Z,17.00
2019-06-01T22:47:58.863Z,17.00
2019-06-01T22:51:57.448Z,16.90
2019-06-01T22:56:00.928Z,16.80
2019-06-01T22:59:59.453Z,16.60
2019-06-01T23:03:57.938Z,16.50
2019-06-01T23:07:56.401Z,16.40
2019-06-01T23:11:54.853Z,16.20
2019-06-01T23:15:53.398Z,16.10
2019-06-01T23:19:57.597Z,16.10
2019-06-01T23:23:56.112Z,16.10
2019-06-01T23:27:56.710Z,16.30
2019-06-01T23:31:55.269Z,16.20
2019-06-01T23:35:53.902Z,16.10
2019-06-01T23:39:52.368Z,15.90
2019-06-01T23:43:50.827Z,15.80
2019-06-01T23:47:49.295Z,15.70
2019-06-01T23:51:49.044Z,15.70
2019-06-01T23:55:47.519Z,15.60
2019-06-01T23:59:49.307Z,15.60
